<?xml version="1.0" encoding="UTF-8" standalone="no" ?>
<gpx xmlns="http://www.topografix.com/GPX/1/1" xmlns:xsi="http://www.w3.org/2001/XMLSchema-instance" xsi:schemaLocation="http://www.topografix.com/GPX/1/1 http://www.topografix.com/GPX/1/1/gpx.xsd" version="1.1" creator="VisuGPX - https://www.visugpx.com">
  <metadata>
    <name>20200620 - circuit route par chez Maxime</name>
  </metadata>
  <trk>
    <name><![CDATA[2020-06-21 10:46:44]]></name>
    <trkseg>
      <trkpt lat="50.12459" lon="3.6782">
        <ele>152.03</ele>
        <time>2020-06-21T08:00:29Z</time>
      </trkpt>
      <trkpt lat="50.12459" lon="3.6782">
        <ele>152.03</ele>
        <time>2020-06-21T08:00:30Z</time>
      </trkpt>
      <trkpt lat="50.12458" lon="3.67819">
        <ele>133.28</ele>
        <time>2020-06-21T08:00:34Z</time>
      </trkpt>
      <trkpt lat="50.12459" lon="3.67819">
        <ele>133.28</ele>
        <time>2020-06-21T08:00:35Z</time>
      </trkpt>
      <trkpt lat="50.12464" lon="3.67816">
        <ele>133.28</ele>
        <time>2020-06-21T08:00:39Z</time>
      </trkpt>
      <trkpt lat="50.12468" lon="3.67815">
        <ele>133.28</ele>
        <time>2020-06-21T08:00:42Z</time>
      </trkpt>
      <trkpt lat="50.12479" lon="3.67812">
        <ele>133.76</ele>
        <time>2020-06-21T08:00:49Z</time>
      </trkpt>
      <trkpt lat="50.12481" lon="3.67814">
        <ele>133.76</ele>
        <time>2020-06-21T08:00:50Z</time>
      </trkpt>
      <trkpt lat="50.12499" lon="3.67832">
        <ele>134.24</ele>
        <time>2020-06-21T08:01:01Z</time>
      </trkpt>
      <trkpt lat="50.12499" lon="3.67837">
        <ele>134.72</ele>
        <time>2020-06-21T08:01:28Z</time>
      </trkpt>
      <trkpt lat="50.12528" lon="3.67867">
        <ele>134.72</ele>
        <time>2020-06-21T08:01:40Z</time>
      </trkpt>
      <trkpt lat="50.12565" lon="3.67898">
        <ele>134.72</ele>
        <time>2020-06-21T08:01:52Z</time>
      </trkpt>
      <trkpt lat="50.12605" lon="3.67962">
        <ele>134.72</ele>
        <time>2020-06-21T08:02:08Z</time>
      </trkpt>
      <trkpt lat="50.12639" lon="3.68036">
        <ele>134.72</ele>
        <time>2020-06-21T08:02:25Z</time>
      </trkpt>
      <trkpt lat="50.12679" lon="3.68119">
        <ele>135.2</ele>
        <time>2020-06-21T08:02:43Z</time>
      </trkpt>
      <trkpt lat="50.12712" lon="3.68184">
        <ele>135.68</ele>
        <time>2020-06-21T08:02:59Z</time>
      </trkpt>
      <trkpt lat="50.12735" lon="3.68249">
        <ele>135.68</ele>
        <time>2020-06-21T08:03:13Z</time>
      </trkpt>
      <trkpt lat="50.12755" lon="3.68311">
        <ele>136.16</ele>
        <time>2020-06-21T08:03:25Z</time>
      </trkpt>
      <trkpt lat="50.12757" lon="3.68316">
        <ele>136.16</ele>
        <time>2020-06-21T08:03:26Z</time>
      </trkpt>
      <trkpt lat="50.12785" lon="3.68397">
        <ele>136.64</ele>
        <time>2020-06-21T08:03:43Z</time>
      </trkpt>
      <trkpt lat="50.12798" lon="3.68443">
        <ele>136.64</ele>
        <time>2020-06-21T08:03:56Z</time>
      </trkpt>
      <trkpt lat="50.12796" lon="3.68445">
        <ele>136.64</ele>
        <time>2020-06-21T08:03:57Z</time>
      </trkpt>
      <trkpt lat="50.12795" lon="3.68447">
        <ele>136.64</ele>
        <time>2020-06-21T08:03:58Z</time>
      </trkpt>
      <trkpt lat="50.12792" lon="3.68449">
        <ele>136.64</ele>
        <time>2020-06-21T08:03:59Z</time>
      </trkpt>
      <trkpt lat="50.12789" lon="3.68452">
        <ele>136.64</ele>
        <time>2020-06-21T08:04:00Z</time>
      </trkpt>
      <trkpt lat="50.12786" lon="3.68454">
        <ele>136.64</ele>
        <time>2020-06-21T08:04:01Z</time>
      </trkpt>
      <trkpt lat="50.12782" lon="3.68457">
        <ele>136.64</ele>
        <time>2020-06-21T08:04:02Z</time>
      </trkpt>
      <trkpt lat="50.12735" lon="3.68498">
        <ele>135.2</ele>
        <time>2020-06-21T08:04:15Z</time>
      </trkpt>
      <trkpt lat="50.12732" lon="3.68504">
        <ele>135.2</ele>
        <time>2020-06-21T08:04:16Z</time>
      </trkpt>
      <trkpt lat="50.12731" lon="3.68511">
        <ele>135.2</ele>
        <time>2020-06-21T08:04:17Z</time>
      </trkpt>
      <trkpt lat="50.12732" lon="3.68517">
        <ele>135.2</ele>
        <time>2020-06-21T08:04:18Z</time>
      </trkpt>
      <trkpt lat="50.12734" lon="3.68521">
        <ele>135.2</ele>
        <time>2020-06-21T08:04:19Z</time>
      </trkpt>
      <trkpt lat="50.12737" lon="3.68526">
        <ele>135.2</ele>
        <time>2020-06-21T08:04:20Z</time>
      </trkpt>
      <trkpt lat="50.1274" lon="3.68531">
        <ele>135.2</ele>
        <time>2020-06-21T08:04:21Z</time>
      </trkpt>
      <trkpt lat="50.12753" lon="3.68555">
        <ele>135.2</ele>
        <time>2020-06-21T08:04:26Z</time>
      </trkpt>
      <trkpt lat="50.12753" lon="3.68561">
        <ele>135.2</ele>
        <time>2020-06-21T08:04:27Z</time>
      </trkpt>
      <trkpt lat="50.12752" lon="3.68567">
        <ele>135.2</ele>
        <time>2020-06-21T08:04:28Z</time>
      </trkpt>
      <trkpt lat="50.1275" lon="3.68572">
        <ele>135.2</ele>
        <time>2020-06-21T08:04:29Z</time>
      </trkpt>
      <trkpt lat="50.12747" lon="3.68576">
        <ele>135.2</ele>
        <time>2020-06-21T08:04:30Z</time>
      </trkpt>
      <trkpt lat="50.12744" lon="3.68581">
        <ele>135.2</ele>
        <time>2020-06-21T08:04:31Z</time>
      </trkpt>
      <trkpt lat="50.12707" lon="3.68649">
        <ele>135.2</ele>
        <time>2020-06-21T08:04:46Z</time>
      </trkpt>
      <trkpt lat="50.12706" lon="3.68655">
        <ele>135.2</ele>
        <time>2020-06-21T08:04:47Z</time>
      </trkpt>
      <trkpt lat="50.12707" lon="3.68659">
        <ele>135.2</ele>
        <time>2020-06-21T08:04:48Z</time>
      </trkpt>
      <trkpt lat="50.12709" lon="3.68664">
        <ele>134.72</ele>
        <time>2020-06-21T08:04:49Z</time>
      </trkpt>
      <trkpt lat="50.12711" lon="3.68667">
        <ele>134.72</ele>
        <time>2020-06-21T08:04:50Z</time>
      </trkpt>
      <trkpt lat="50.12729" lon="3.6871">
        <ele>134.72</ele>
        <time>2020-06-21T08:05:02Z</time>
      </trkpt>
      <trkpt lat="50.12728" lon="3.68712">
        <ele>134.72</ele>
        <time>2020-06-21T08:05:03Z</time>
      </trkpt>
      <trkpt lat="50.12726" lon="3.68715">
        <ele>134.72</ele>
        <time>2020-06-21T08:05:04Z</time>
      </trkpt>
      <trkpt lat="50.12724" lon="3.68717">
        <ele>134.72</ele>
        <time>2020-06-21T08:05:05Z</time>
      </trkpt>
      <trkpt lat="50.12721" lon="3.68721">
        <ele>134.72</ele>
        <time>2020-06-21T08:05:06Z</time>
      </trkpt>
      <trkpt lat="50.12679" lon="3.68776">
        <ele>137.13</ele>
        <time>2020-06-21T08:05:20Z</time>
      </trkpt>
      <trkpt lat="50.1265" lon="3.68809">
        <ele>137.13</ele>
        <time>2020-06-21T08:05:30Z</time>
      </trkpt>
      <trkpt lat="50.12646" lon="3.68809">
        <ele>137.13</ele>
        <time>2020-06-21T08:05:31Z</time>
      </trkpt>
      <trkpt lat="50.12641" lon="3.68806">
        <ele>137.13</ele>
        <time>2020-06-21T08:05:32Z</time>
      </trkpt>
      <trkpt lat="50.12637" lon="3.68799">
        <ele>137.13</ele>
        <time>2020-06-21T08:05:33Z</time>
      </trkpt>
      <trkpt lat="50.12635" lon="3.68794">
        <ele>135.68</ele>
        <time>2020-06-21T08:05:34Z</time>
      </trkpt>
      <trkpt lat="50.12628" lon="3.6878">
        <ele>135.2</ele>
        <time>2020-06-21T08:05:36Z</time>
      </trkpt>
      <trkpt lat="50.12589" lon="3.6871">
        <ele>134.72</ele>
        <time>2020-06-21T08:05:50Z</time>
      </trkpt>
      <trkpt lat="50.12555" lon="3.68717">
        <ele>134.72</ele>
        <time>2020-06-21T08:06:01Z</time>
      </trkpt>
      <trkpt lat="50.12523" lon="3.68728">
        <ele>134.72</ele>
        <time>2020-06-21T08:06:12Z</time>
      </trkpt>
      <trkpt lat="50.12469" lon="3.68751">
        <ele>134.72</ele>
        <time>2020-06-21T08:06:27Z</time>
      </trkpt>
      <trkpt lat="50.12428" lon="3.68777">
        <ele>135.68</ele>
        <time>2020-06-21T08:06:41Z</time>
      </trkpt>
      <trkpt lat="50.12389" lon="3.6883">
        <ele>135.68</ele>
        <time>2020-06-21T08:06:57Z</time>
      </trkpt>
      <trkpt lat="50.12351" lon="3.68885">
        <ele>135.68</ele>
        <time>2020-06-21T08:07:13Z</time>
      </trkpt>
      <trkpt lat="50.12315" lon="3.6893">
        <ele>136.16</ele>
        <time>2020-06-21T08:07:29Z</time>
      </trkpt>
      <trkpt lat="50.12273" lon="3.68988">
        <ele>137.13</ele>
        <time>2020-06-21T08:07:47Z</time>
      </trkpt>
      <trkpt lat="50.12217" lon="3.69075">
        <ele>138.57</ele>
        <time>2020-06-21T08:08:10Z</time>
      </trkpt>
      <trkpt lat="50.1218" lon="3.69094">
        <ele>139.05</ele>
        <time>2020-06-21T08:08:21Z</time>
      </trkpt>
      <trkpt lat="50.12129" lon="3.6912">
        <ele>140.49</ele>
        <time>2020-06-21T08:08:38Z</time>
      </trkpt>
      <trkpt lat="50.12082" lon="3.69146">
        <ele>140.49</ele>
        <time>2020-06-21T08:08:55Z</time>
      </trkpt>
      <trkpt lat="50.12086" lon="3.69153">
        <ele>141.45</ele>
        <time>2020-06-21T08:08:57Z</time>
      </trkpt>
      <trkpt lat="50.12088" lon="3.69155">
        <ele>140.97</ele>
        <time>2020-06-21T08:08:58Z</time>
      </trkpt>
      <trkpt lat="50.12091" lon="3.69157">
        <ele>140.97</ele>
        <time>2020-06-21T08:08:59Z</time>
      </trkpt>
      <trkpt lat="50.12154" lon="3.69212">
        <ele>139.53</ele>
        <time>2020-06-21T08:09:18Z</time>
      </trkpt>
      <trkpt lat="50.12198" lon="3.69254">
        <ele>139.05</ele>
        <time>2020-06-21T08:09:31Z</time>
      </trkpt>
      <trkpt lat="50.12207" lon="3.69267">
        <ele>138.57</ele>
        <time>2020-06-21T08:09:34Z</time>
      </trkpt>
      <trkpt lat="50.12251" lon="3.6935">
        <ele>138.09</ele>
        <time>2020-06-21T08:09:52Z</time>
      </trkpt>
      <trkpt lat="50.12254" lon="3.69368">
        <ele>138.09</ele>
        <time>2020-06-21T08:09:57Z</time>
      </trkpt>
      <trkpt lat="50.12252" lon="3.69372">
        <ele>138.09</ele>
        <time>2020-06-21T08:09:58Z</time>
      </trkpt>
      <trkpt lat="50.12251" lon="3.69375">
        <ele>138.09</ele>
        <time>2020-06-21T08:09:59Z</time>
      </trkpt>
      <trkpt lat="50.12248" lon="3.69379">
        <ele>138.09</ele>
        <time>2020-06-21T08:10:00Z</time>
      </trkpt>
      <trkpt lat="50.12245" lon="3.69383">
        <ele>138.09</ele>
        <time>2020-06-21T08:10:01Z</time>
      </trkpt>
      <trkpt lat="50.12198" lon="3.69451">
        <ele>138.57</ele>
        <time>2020-06-21T08:10:15Z</time>
      </trkpt>
      <trkpt lat="50.12193" lon="3.69453">
        <ele>138.57</ele>
        <time>2020-06-21T08:10:16Z</time>
      </trkpt>
      <trkpt lat="50.12189" lon="3.69454">
        <ele>138.57</ele>
        <time>2020-06-21T08:10:17Z</time>
      </trkpt>
      <trkpt lat="50.12184" lon="3.69455">
        <ele>138.57</ele>
        <time>2020-06-21T08:10:18Z</time>
      </trkpt>
      <trkpt lat="50.1218" lon="3.69455">
        <ele>138.57</ele>
        <time>2020-06-21T08:10:19Z</time>
      </trkpt>
      <trkpt lat="50.12176" lon="3.69454">
        <ele>138.57</ele>
        <time>2020-06-21T08:10:20Z</time>
      </trkpt>
      <trkpt lat="50.12172" lon="3.69453">
        <ele>138.09</ele>
        <time>2020-06-21T08:10:21Z</time>
      </trkpt>
      <trkpt lat="50.12092" lon="3.69441">
        <ele>138.57</ele>
        <time>2020-06-21T08:10:40Z</time>
      </trkpt>
      <trkpt lat="50.12006" lon="3.69428">
        <ele>138.57</ele>
        <time>2020-06-21T08:11:01Z</time>
      </trkpt>
      <trkpt lat="50.1193" lon="3.69415">
        <ele>139.53</ele>
        <time>2020-06-21T08:11:22Z</time>
      </trkpt>
      <trkpt lat="50.11864" lon="3.69405">
        <ele>140.97</ele>
        <time>2020-06-21T08:11:40Z</time>
      </trkpt>
      <trkpt lat="50.11788" lon="3.69392">
        <ele>142.89</ele>
        <time>2020-06-21T08:12:00Z</time>
      </trkpt>
      <trkpt lat="50.11735" lon="3.69385">
        <ele>143.85</ele>
        <time>2020-06-21T08:12:16Z</time>
      </trkpt>
      <trkpt lat="50.11675" lon="3.69377">
        <ele>144.82</ele>
        <time>2020-06-21T08:12:33Z</time>
      </trkpt>
      <trkpt lat="50.11607" lon="3.69366">
        <ele>145.78</ele>
        <time>2020-06-21T08:12:46Z</time>
      </trkpt>
      <trkpt lat="50.11563" lon="3.69359">
        <ele>146.26</ele>
        <time>2020-06-21T08:12:56Z</time>
      </trkpt>
      <trkpt lat="50.11559" lon="3.69357">
        <ele>146.26</ele>
        <time>2020-06-21T08:12:57Z</time>
      </trkpt>
      <trkpt lat="50.11555" lon="3.69357">
        <ele>146.26</ele>
        <time>2020-06-21T08:12:58Z</time>
      </trkpt>
      <trkpt lat="50.11476" lon="3.69345">
        <ele>146.74</ele>
        <time>2020-06-21T08:13:17Z</time>
      </trkpt>
      <trkpt lat="50.11415" lon="3.69335">
        <ele>147.7</ele>
        <time>2020-06-21T08:13:33Z</time>
      </trkpt>
      <trkpt lat="50.11401" lon="3.69334">
        <ele>147.7</ele>
        <time>2020-06-21T08:13:36Z</time>
      </trkpt>
      <trkpt lat="50.11324" lon="3.69321">
        <ele>148.18</ele>
        <time>2020-06-21T08:13:53Z</time>
      </trkpt>
      <trkpt lat="50.11242" lon="3.69309">
        <ele>148.18</ele>
        <time>2020-06-21T08:14:10Z</time>
      </trkpt>
      <trkpt lat="50.11156" lon="3.69297">
        <ele>147.22</ele>
        <time>2020-06-21T08:14:25Z</time>
      </trkpt>
      <trkpt lat="50.11091" lon="3.69286">
        <ele>148.66</ele>
        <time>2020-06-21T08:14:39Z</time>
      </trkpt>
      <trkpt lat="50.11021" lon="3.69275">
        <ele>150.58</ele>
        <time>2020-06-21T08:14:58Z</time>
      </trkpt>
      <trkpt lat="50.11005" lon="3.69274">
        <ele>150.58</ele>
        <time>2020-06-21T08:15:02Z</time>
      </trkpt>
      <trkpt lat="50.11001" lon="3.69273">
        <ele>150.58</ele>
        <time>2020-06-21T08:15:03Z</time>
      </trkpt>
      <trkpt lat="50.10997" lon="3.69272">
        <ele>150.58</ele>
        <time>2020-06-21T08:15:04Z</time>
      </trkpt>
      <trkpt lat="50.10993" lon="3.69271">
        <ele>150.58</ele>
        <time>2020-06-21T08:15:05Z</time>
      </trkpt>
      <trkpt lat="50.10989" lon="3.6927">
        <ele>150.58</ele>
        <time>2020-06-21T08:15:06Z</time>
      </trkpt>
      <trkpt lat="50.10923" lon="3.69259">
        <ele>150.58</ele>
        <time>2020-06-21T08:15:22Z</time>
      </trkpt>
      <trkpt lat="50.10843" lon="3.69247">
        <ele>149.62</ele>
        <time>2020-06-21T08:15:40Z</time>
      </trkpt>
      <trkpt lat="50.10779" lon="3.69237">
        <ele>148.18</ele>
        <time>2020-06-21T08:15:55Z</time>
      </trkpt>
      <trkpt lat="50.10757" lon="3.69234">
        <ele>146.74</ele>
        <time>2020-06-21T08:16:06Z</time>
      </trkpt>
      <trkpt lat="50.10743" lon="3.69234">
        <ele>146.74</ele>
        <time>2020-06-21T08:16:10Z</time>
      </trkpt>
      <trkpt lat="50.10739" lon="3.69239">
        <ele>146.74</ele>
        <time>2020-06-21T08:16:11Z</time>
      </trkpt>
      <trkpt lat="50.10735" lon="3.69246">
        <ele>146.26</ele>
        <time>2020-06-21T08:16:12Z</time>
      </trkpt>
      <trkpt lat="50.10733" lon="3.69253">
        <ele>146.26</ele>
        <time>2020-06-21T08:16:13Z</time>
      </trkpt>
      <trkpt lat="50.10731" lon="3.69261">
        <ele>146.26</ele>
        <time>2020-06-21T08:16:14Z</time>
      </trkpt>
      <trkpt lat="50.10729" lon="3.69269">
        <ele>145.78</ele>
        <time>2020-06-21T08:16:15Z</time>
      </trkpt>
      <trkpt lat="50.10722" lon="3.69304">
        <ele>145.78</ele>
        <time>2020-06-21T08:16:20Z</time>
      </trkpt>
      <trkpt lat="50.10706" lon="3.69367">
        <ele>147.22</ele>
        <time>2020-06-21T08:16:33Z</time>
      </trkpt>
      <trkpt lat="50.10701" lon="3.69389">
        <ele>147.22</ele>
        <time>2020-06-21T08:16:37Z</time>
      </trkpt>
      <trkpt lat="50.10684" lon="3.69463">
        <ele>148.18</ele>
        <time>2020-06-21T08:16:51Z</time>
      </trkpt>
      <trkpt lat="50.10662" lon="3.69553">
        <ele>148.66</ele>
        <time>2020-06-21T08:17:10Z</time>
      </trkpt>
      <trkpt lat="50.10653" lon="3.69583">
        <ele>148.66</ele>
        <time>2020-06-21T08:17:16Z</time>
      </trkpt>
      <trkpt lat="50.10616" lon="3.69678">
        <ele>149.14</ele>
        <time>2020-06-21T08:17:33Z</time>
      </trkpt>
      <trkpt lat="50.10592" lon="3.69742">
        <ele>148.66</ele>
        <time>2020-06-21T08:17:48Z</time>
      </trkpt>
      <trkpt lat="50.1059" lon="3.69743">
        <ele>148.66</ele>
        <time>2020-06-21T08:18:00Z</time>
      </trkpt>
      <trkpt lat="50.10589" lon="3.69743">
        <ele>149.14</ele>
        <time>2020-06-21T08:18:32Z</time>
      </trkpt>
      <trkpt lat="50.10588" lon="3.69745">
        <ele>149.14</ele>
        <time>2020-06-21T08:18:49Z</time>
      </trkpt>
      <trkpt lat="50.10587" lon="3.69746">
        <ele>149.14</ele>
        <time>2020-06-21T08:18:50Z</time>
      </trkpt>
      <trkpt lat="50.10586" lon="3.69749">
        <ele>149.14</ele>
        <time>2020-06-21T08:18:51Z</time>
      </trkpt>
      <trkpt lat="50.10585" lon="3.69751">
        <ele>149.14</ele>
        <time>2020-06-21T08:18:52Z</time>
      </trkpt>
      <trkpt lat="50.10583" lon="3.69754">
        <ele>149.14</ele>
        <time>2020-06-21T08:18:53Z</time>
      </trkpt>
      <trkpt lat="50.10582" lon="3.69758">
        <ele>149.14</ele>
        <time>2020-06-21T08:18:54Z</time>
      </trkpt>
      <trkpt lat="50.10558" lon="3.69816">
        <ele>150.1</ele>
        <time>2020-06-21T08:19:08Z</time>
      </trkpt>
      <trkpt lat="50.10523" lon="3.69899">
        <ele>150.1</ele>
        <time>2020-06-21T08:19:28Z</time>
      </trkpt>
      <trkpt lat="50.10498" lon="3.69963">
        <ele>151.06</ele>
        <time>2020-06-21T08:19:43Z</time>
      </trkpt>
      <trkpt lat="50.10484" lon="3.70014">
        <ele>152.03</ele>
        <time>2020-06-21T08:19:57Z</time>
      </trkpt>
      <trkpt lat="50.10471" lon="3.70076">
        <ele>152.51</ele>
        <time>2020-06-21T08:20:14Z</time>
      </trkpt>
      <trkpt lat="50.1045" lon="3.7015">
        <ele>153.95</ele>
        <time>2020-06-21T08:20:32Z</time>
      </trkpt>
      <trkpt lat="50.10418" lon="3.70222">
        <ele>152.99</ele>
        <time>2020-06-21T08:20:47Z</time>
      </trkpt>
      <trkpt lat="50.10415" lon="3.70227">
        <ele>152.99</ele>
        <time>2020-06-21T08:20:48Z</time>
      </trkpt>
      <trkpt lat="50.10394" lon="3.70292">
        <ele>152.03</ele>
        <time>2020-06-21T08:20:59Z</time>
      </trkpt>
      <trkpt lat="50.1039" lon="3.70343">
        <ele>151.54</ele>
        <time>2020-06-21T08:21:07Z</time>
      </trkpt>
      <trkpt lat="50.10391" lon="3.70435">
        <ele>151.54</ele>
        <time>2020-06-21T08:21:20Z</time>
      </trkpt>
      <trkpt lat="50.10398" lon="3.70525">
        <ele>151.54</ele>
        <time>2020-06-21T08:21:35Z</time>
      </trkpt>
      <trkpt lat="50.10403" lon="3.7055">
        <ele>151.54</ele>
        <time>2020-06-21T08:21:39Z</time>
      </trkpt>
      <trkpt lat="50.10404" lon="3.70556">
        <ele>151.54</ele>
        <time>2020-06-21T08:21:40Z</time>
      </trkpt>
      <trkpt lat="50.10425" lon="3.70673">
        <ele>153.95</ele>
        <time>2020-06-21T08:22:00Z</time>
      </trkpt>
      <trkpt lat="50.10428" lon="3.70714">
        <ele>154.43</ele>
        <time>2020-06-21T08:22:14Z</time>
      </trkpt>
      <trkpt lat="50.10426" lon="3.70768">
        <ele>155.87</ele>
        <time>2020-06-21T08:22:33Z</time>
      </trkpt>
      <trkpt lat="50.10417" lon="3.70828">
        <ele>156.35</ele>
        <time>2020-06-21T08:22:48Z</time>
      </trkpt>
      <trkpt lat="50.10399" lon="3.70894">
        <ele>157.31</ele>
        <time>2020-06-21T08:23:00Z</time>
      </trkpt>
      <trkpt lat="50.10387" lon="3.70955">
        <ele>157.79</ele>
        <time>2020-06-21T08:23:13Z</time>
      </trkpt>
      <trkpt lat="50.10373" lon="3.71029">
        <ele>158.27</ele>
        <time>2020-06-21T08:23:29Z</time>
      </trkpt>
      <trkpt lat="50.10356" lon="3.71133">
        <ele>158.75</ele>
        <time>2020-06-21T08:23:47Z</time>
      </trkpt>
      <trkpt lat="50.10344" lon="3.7122">
        <ele>158.75</ele>
        <time>2020-06-21T08:24:05Z</time>
      </trkpt>
      <trkpt lat="50.10339" lon="3.7132">
        <ele>158.75</ele>
        <time>2020-06-21T08:24:24Z</time>
      </trkpt>
      <trkpt lat="50.10328" lon="3.7141">
        <ele>158.75</ele>
        <time>2020-06-21T08:24:40Z</time>
      </trkpt>
      <trkpt lat="50.10328" lon="3.71486">
        <ele>158.75</ele>
        <time>2020-06-21T08:24:54Z</time>
      </trkpt>
      <trkpt lat="50.10333" lon="3.71577">
        <ele>158.75</ele>
        <time>2020-06-21T08:25:10Z</time>
      </trkpt>
      <trkpt lat="50.10339" lon="3.71695">
        <ele>160.68</ele>
        <time>2020-06-21T08:25:30Z</time>
      </trkpt>
      <trkpt lat="50.10344" lon="3.71767">
        <ele>161.64</ele>
        <time>2020-06-21T08:25:45Z</time>
      </trkpt>
      <trkpt lat="50.10346" lon="3.7184">
        <ele>162.12</ele>
        <time>2020-06-21T08:25:59Z</time>
      </trkpt>
      <trkpt lat="50.10344" lon="3.71915">
        <ele>162.6</ele>
        <time>2020-06-21T08:26:14Z</time>
      </trkpt>
      <trkpt lat="50.10342" lon="3.71965">
        <ele>162.6</ele>
        <time>2020-06-21T08:26:25Z</time>
      </trkpt>
      <trkpt lat="50.10349" lon="3.71995">
        <ele>162.6</ele>
        <time>2020-06-21T08:26:38Z</time>
      </trkpt>
      <trkpt lat="50.1035" lon="3.71996">
        <ele>162.6</ele>
        <time>2020-06-21T08:26:39Z</time>
      </trkpt>
      <trkpt lat="50.10352" lon="3.71995">
        <ele>162.6</ele>
        <time>2020-06-21T08:26:40Z</time>
      </trkpt>
      <trkpt lat="50.10353" lon="3.71996">
        <ele>162.6</ele>
        <time>2020-06-21T08:26:51Z</time>
      </trkpt>
      <trkpt lat="50.10351" lon="3.71998">
        <ele>161.64</ele>
        <time>2020-06-21T08:27:12Z</time>
      </trkpt>
      <trkpt lat="50.1035" lon="3.71999">
        <ele>161.64</ele>
        <time>2020-06-21T08:27:33Z</time>
      </trkpt>
      <trkpt lat="50.10352" lon="3.71998">
        <ele>161.64</ele>
        <time>2020-06-21T08:28:08Z</time>
      </trkpt>
      <trkpt lat="50.10355" lon="3.71991">
        <ele>162.6</ele>
        <time>2020-06-21T08:28:20Z</time>
      </trkpt>
      <trkpt lat="50.10358" lon="3.71983">
        <ele>162.6</ele>
        <time>2020-06-21T08:28:23Z</time>
      </trkpt>
      <trkpt lat="50.10359" lon="3.71979">
        <ele>162.6</ele>
        <time>2020-06-21T08:28:24Z</time>
      </trkpt>
      <trkpt lat="50.10361" lon="3.71976">
        <ele>162.6</ele>
        <time>2020-06-21T08:28:25Z</time>
      </trkpt>
      <trkpt lat="50.10363" lon="3.71974">
        <ele>163.56</ele>
        <time>2020-06-21T08:28:26Z</time>
      </trkpt>
      <trkpt lat="50.10365" lon="3.71972">
        <ele>163.56</ele>
        <time>2020-06-21T08:28:27Z</time>
      </trkpt>
      <trkpt lat="50.10367" lon="3.71971">
        <ele>163.56</ele>
        <time>2020-06-21T08:28:28Z</time>
      </trkpt>
      <trkpt lat="50.10404" lon="3.71976">
        <ele>164.52</ele>
        <time>2020-06-21T08:28:42Z</time>
      </trkpt>
      <trkpt lat="50.10427" lon="3.71975">
        <ele>165.48</ele>
        <time>2020-06-21T08:28:51Z</time>
      </trkpt>
      <trkpt lat="50.10428" lon="3.71974">
        <ele>165.48</ele>
        <time>2020-06-21T08:28:52Z</time>
      </trkpt>
      <trkpt lat="50.10429" lon="3.71973">
        <ele>165.48</ele>
        <time>2020-06-21T08:28:53Z</time>
      </trkpt>
      <trkpt lat="50.1043" lon="3.71972">
        <ele>165.48</ele>
        <time>2020-06-21T08:28:54Z</time>
      </trkpt>
      <trkpt lat="50.10431" lon="3.71971">
        <ele>165.48</ele>
        <time>2020-06-21T08:28:55Z</time>
      </trkpt>
      <trkpt lat="50.10434" lon="3.7197">
        <ele>165.48</ele>
        <time>2020-06-21T08:29:07Z</time>
      </trkpt>
      <trkpt lat="50.10447" lon="3.71958">
        <ele>165.48</ele>
        <time>2020-06-21T08:29:20Z</time>
      </trkpt>
      <trkpt lat="50.10474" lon="3.71909">
        <ele>166.93</ele>
        <time>2020-06-21T08:29:34Z</time>
      </trkpt>
      <trkpt lat="50.10495" lon="3.71833">
        <ele>168.37</ele>
        <time>2020-06-21T08:29:50Z</time>
      </trkpt>
      <trkpt lat="50.10512" lon="3.71777">
        <ele>169.33</ele>
        <time>2020-06-21T08:30:04Z</time>
      </trkpt>
      <trkpt lat="50.10535" lon="3.71704">
        <ele>170.29</ele>
        <time>2020-06-21T08:30:22Z</time>
      </trkpt>
      <trkpt lat="50.10554" lon="3.71641">
        <ele>169.81</ele>
        <time>2020-06-21T08:30:37Z</time>
      </trkpt>
      <trkpt lat="50.10572" lon="3.71551">
        <ele>169.81</ele>
        <time>2020-06-21T08:30:54Z</time>
      </trkpt>
      <trkpt lat="50.10591" lon="3.71451">
        <ele>169.81</ele>
        <time>2020-06-21T08:31:12Z</time>
      </trkpt>
      <trkpt lat="50.10603" lon="3.71387">
        <ele>168.85</ele>
        <time>2020-06-21T08:31:23Z</time>
      </trkpt>
      <trkpt lat="50.10633" lon="3.71268">
        <ele>168.85</ele>
        <time>2020-06-21T08:31:44Z</time>
      </trkpt>
      <trkpt lat="50.1064" lon="3.71253">
        <ele>168.85</ele>
        <time>2020-06-21T08:31:47Z</time>
      </trkpt>
      <trkpt lat="50.10689" lon="3.71208">
        <ele>168.85</ele>
        <time>2020-06-21T08:32:03Z</time>
      </trkpt>
      <trkpt lat="50.10754" lon="3.71189">
        <ele>168.85</ele>
        <time>2020-06-21T08:32:21Z</time>
      </trkpt>
      <trkpt lat="50.10832" lon="3.71168">
        <ele>165.48</ele>
        <time>2020-06-21T08:32:35Z</time>
      </trkpt>
      <trkpt lat="50.10936" lon="3.71159">
        <ele>162.6</ele>
        <time>2020-06-21T08:32:52Z</time>
      </trkpt>
      <trkpt lat="50.11017" lon="3.71147">
        <ele>160.68</ele>
        <time>2020-06-21T08:33:06Z</time>
      </trkpt>
      <trkpt lat="50.11023" lon="3.71143">
        <ele>160.2</ele>
        <time>2020-06-21T08:33:07Z</time>
      </trkpt>
      <trkpt lat="50.11042" lon="3.71125">
        <ele>159.24</ele>
        <time>2020-06-21T08:33:11Z</time>
      </trkpt>
      <trkpt lat="50.11046" lon="3.7112">
        <ele>159.24</ele>
        <time>2020-06-21T08:33:12Z</time>
      </trkpt>
      <trkpt lat="50.11084" lon="3.71064">
        <ele>158.27</ele>
        <time>2020-06-21T08:33:22Z</time>
      </trkpt>
      <trkpt lat="50.11093" lon="3.71055">
        <ele>158.27</ele>
        <time>2020-06-21T08:33:24Z</time>
      </trkpt>
      <trkpt lat="50.11102" lon="3.71047">
        <ele>157.79</ele>
        <time>2020-06-21T08:33:26Z</time>
      </trkpt>
      <trkpt lat="50.11107" lon="3.71044">
        <ele>157.79</ele>
        <time>2020-06-21T08:33:27Z</time>
      </trkpt>
      <trkpt lat="50.11113" lon="3.71041">
        <ele>156.83</ele>
        <time>2020-06-21T08:33:28Z</time>
      </trkpt>
      <trkpt lat="50.11119" lon="3.71039">
        <ele>156.83</ele>
        <time>2020-06-21T08:33:29Z</time>
      </trkpt>
      <trkpt lat="50.11125" lon="3.71038">
        <ele>156.83</ele>
        <time>2020-06-21T08:33:30Z</time>
      </trkpt>
      <trkpt lat="50.11132" lon="3.71036">
        <ele>155.87</ele>
        <time>2020-06-21T08:33:31Z</time>
      </trkpt>
      <trkpt lat="50.11189" lon="3.71028">
        <ele>152.99</ele>
        <time>2020-06-21T08:33:39Z</time>
      </trkpt>
      <trkpt lat="50.11262" lon="3.70992">
        <ele>149.62</ele>
        <time>2020-06-21T08:33:49Z</time>
      </trkpt>
      <trkpt lat="50.11338" lon="3.7091">
        <ele>146.74</ele>
        <time>2020-06-21T08:34:03Z</time>
      </trkpt>
      <trkpt lat="50.11365" lon="3.70874">
        <ele>146.26</ele>
        <time>2020-06-21T08:34:10Z</time>
      </trkpt>
      <trkpt lat="50.11369" lon="3.7087">
        <ele>146.26</ele>
        <time>2020-06-21T08:34:11Z</time>
      </trkpt>
      <trkpt lat="50.11412" lon="3.70842">
        <ele>145.3</ele>
        <time>2020-06-21T08:34:21Z</time>
      </trkpt>
      <trkpt lat="50.11502" lon="3.70813">
        <ele>143.37</ele>
        <time>2020-06-21T08:34:40Z</time>
      </trkpt>
      <trkpt lat="50.1158" lon="3.70786">
        <ele>141.45</ele>
        <time>2020-06-21T08:34:55Z</time>
      </trkpt>
      <trkpt lat="50.11605" lon="3.70768">
        <ele>141.45</ele>
        <time>2020-06-21T08:35:01Z</time>
      </trkpt>
      <trkpt lat="50.11634" lon="3.70714">
        <ele>140.97</ele>
        <time>2020-06-21T08:35:12Z</time>
      </trkpt>
      <trkpt lat="50.11664" lon="3.70628">
        <ele>140.49</ele>
        <time>2020-06-21T08:35:28Z</time>
      </trkpt>
      <trkpt lat="50.11703" lon="3.7055">
        <ele>140.01</ele>
        <time>2020-06-21T08:35:44Z</time>
      </trkpt>
      <trkpt lat="50.11707" lon="3.70547">
        <ele>140.01</ele>
        <time>2020-06-21T08:35:45Z</time>
      </trkpt>
      <trkpt lat="50.11711" lon="3.70545">
        <ele>140.01</ele>
        <time>2020-06-21T08:35:46Z</time>
      </trkpt>
      <trkpt lat="50.11776" lon="3.70523">
        <ele>139.53</ele>
        <time>2020-06-21T08:36:03Z</time>
      </trkpt>
      <trkpt lat="50.11837" lon="3.70506">
        <ele>139.53</ele>
        <time>2020-06-21T08:36:21Z</time>
      </trkpt>
      <trkpt lat="50.11847" lon="3.70507">
        <ele>139.53</ele>
        <time>2020-06-21T08:36:32Z</time>
      </trkpt>
      <trkpt lat="50.11851" lon="3.70501">
        <ele>139.53</ele>
        <time>2020-06-21T08:36:36Z</time>
      </trkpt>
      <trkpt lat="50.11851" lon="3.70496">
        <ele>139.53</ele>
        <time>2020-06-21T08:36:37Z</time>
      </trkpt>
      <trkpt lat="50.11851" lon="3.70492">
        <ele>139.53</ele>
        <time>2020-06-21T08:36:38Z</time>
      </trkpt>
      <trkpt lat="50.1185" lon="3.70486">
        <ele>139.53</ele>
        <time>2020-06-21T08:36:39Z</time>
      </trkpt>
      <trkpt lat="50.11849" lon="3.70481">
        <ele>139.53</ele>
        <time>2020-06-21T08:36:40Z</time>
      </trkpt>
      <trkpt lat="50.11849" lon="3.70399">
        <ele>139.05</ele>
        <time>2020-06-21T08:36:54Z</time>
      </trkpt>
      <trkpt lat="50.11867" lon="3.70299">
        <ele>139.05</ele>
        <time>2020-06-21T08:37:14Z</time>
      </trkpt>
      <trkpt lat="50.11885" lon="3.702">
        <ele>139.05</ele>
        <time>2020-06-21T08:37:35Z</time>
      </trkpt>
      <trkpt lat="50.11904" lon="3.70094">
        <ele>138.57</ele>
        <time>2020-06-21T08:37:53Z</time>
      </trkpt>
      <trkpt lat="50.11922" lon="3.69992">
        <ele>138.57</ele>
        <time>2020-06-21T08:38:12Z</time>
      </trkpt>
      <trkpt lat="50.11935" lon="3.69923">
        <ele>138.57</ele>
        <time>2020-06-21T08:38:26Z</time>
      </trkpt>
      <trkpt lat="50.11948" lon="3.69841">
        <ele>140.01</ele>
        <time>2020-06-21T08:38:42Z</time>
      </trkpt>
      <trkpt lat="50.1195" lon="3.69835">
        <ele>140.01</ele>
        <time>2020-06-21T08:38:43Z</time>
      </trkpt>
      <trkpt lat="50.11956" lon="3.69802">
        <ele>140.49</ele>
        <time>2020-06-21T08:38:48Z</time>
      </trkpt>
      <trkpt lat="50.11957" lon="3.69797">
        <ele>140.49</ele>
        <time>2020-06-21T08:38:49Z</time>
      </trkpt>
      <trkpt lat="50.11988" lon="3.69735">
        <ele>140.49</ele>
        <time>2020-06-21T08:39:05Z</time>
      </trkpt>
      <trkpt lat="50.12027" lon="3.69675">
        <ele>140.97</ele>
        <time>2020-06-21T08:39:17Z</time>
      </trkpt>
      <trkpt lat="50.12095" lon="3.6958">
        <ele>140.97</ele>
        <time>2020-06-21T08:39:31Z</time>
      </trkpt>
      <trkpt lat="50.12156" lon="3.69514">
        <ele>140.97</ele>
        <time>2020-06-21T08:39:45Z</time>
      </trkpt>
      <trkpt lat="50.12165" lon="3.69504">
        <ele>140.01</ele>
        <time>2020-06-21T08:39:47Z</time>
      </trkpt>
      <trkpt lat="50.12207" lon="3.69455">
        <ele>139.53</ele>
        <time>2020-06-21T08:39:58Z</time>
      </trkpt>
      <trkpt lat="50.12219" lon="3.69434">
        <ele>139.53</ele>
        <time>2020-06-21T08:40:02Z</time>
      </trkpt>
      <trkpt lat="50.12222" lon="3.69428">
        <ele>139.53</ele>
        <time>2020-06-21T08:40:03Z</time>
      </trkpt>
      <trkpt lat="50.12232" lon="3.69413">
        <ele>139.53</ele>
        <time>2020-06-21T08:40:06Z</time>
      </trkpt>
      <trkpt lat="50.12251" lon="3.69385">
        <ele>139.53</ele>
        <time>2020-06-21T08:40:11Z</time>
      </trkpt>
      <trkpt lat="50.12291" lon="3.69322">
        <ele>139.05</ele>
        <time>2020-06-21T08:40:22Z</time>
      </trkpt>
      <trkpt lat="50.12308" lon="3.69298">
        <ele>138.57</ele>
        <time>2020-06-21T08:40:26Z</time>
      </trkpt>
      <trkpt lat="50.12312" lon="3.69292">
        <ele>138.57</ele>
        <time>2020-06-21T08:40:27Z</time>
      </trkpt>
      <trkpt lat="50.12316" lon="3.69287">
        <ele>138.57</ele>
        <time>2020-06-21T08:40:28Z</time>
      </trkpt>
      <trkpt lat="50.12358" lon="3.69218">
        <ele>138.57</ele>
        <time>2020-06-21T08:40:41Z</time>
      </trkpt>
      <trkpt lat="50.12366" lon="3.69206">
        <ele>138.57</ele>
        <time>2020-06-21T08:40:44Z</time>
      </trkpt>
      <trkpt lat="50.12387" lon="3.69125">
        <ele>138.09</ele>
        <time>2020-06-21T08:41:00Z</time>
      </trkpt>
      <trkpt lat="50.12413" lon="3.69062">
        <ele>137.61</ele>
        <time>2020-06-21T08:41:13Z</time>
      </trkpt>
      <trkpt lat="50.12432" lon="3.69017">
        <ele>137.61</ele>
        <time>2020-06-21T08:41:21Z</time>
      </trkpt>
      <trkpt lat="50.12435" lon="3.69012">
        <ele>137.61</ele>
        <time>2020-06-21T08:41:22Z</time>
      </trkpt>
      <trkpt lat="50.12438" lon="3.69007">
        <ele>137.61</ele>
        <time>2020-06-21T08:41:23Z</time>
      </trkpt>
      <trkpt lat="50.12478" lon="3.68946">
        <ele>137.61</ele>
        <time>2020-06-21T08:41:37Z</time>
      </trkpt>
      <trkpt lat="50.12503" lon="3.68909">
        <ele>137.61</ele>
        <time>2020-06-21T08:41:45Z</time>
      </trkpt>
      <trkpt lat="50.12506" lon="3.68906">
        <ele>137.61</ele>
        <time>2020-06-21T08:41:46Z</time>
      </trkpt>
      <trkpt lat="50.12559" lon="3.68865">
        <ele>137.61</ele>
        <time>2020-06-21T08:42:02Z</time>
      </trkpt>
      <trkpt lat="50.12562" lon="3.68862">
        <ele>137.61</ele>
        <time>2020-06-21T08:42:03Z</time>
      </trkpt>
      <trkpt lat="50.12566" lon="3.68859">
        <ele>137.61</ele>
        <time>2020-06-21T08:42:04Z</time>
      </trkpt>
      <trkpt lat="50.12628" lon="3.68827">
        <ele>136.64</ele>
        <time>2020-06-21T08:42:15Z</time>
      </trkpt>
      <trkpt lat="50.12647" lon="3.68817">
        <ele>136.64</ele>
        <time>2020-06-21T08:42:18Z</time>
      </trkpt>
      <trkpt lat="50.12653" lon="3.68813">
        <ele>138.09</ele>
        <time>2020-06-21T08:42:19Z</time>
      </trkpt>
      <trkpt lat="50.12658" lon="3.68809">
        <ele>138.57</ele>
        <time>2020-06-21T08:42:20Z</time>
      </trkpt>
      <trkpt lat="50.12663" lon="3.68804">
        <ele>138.57</ele>
        <time>2020-06-21T08:42:21Z</time>
      </trkpt>
      <trkpt lat="50.12668" lon="3.68799">
        <ele>138.57</ele>
        <time>2020-06-21T08:42:22Z</time>
      </trkpt>
      <trkpt lat="50.12671" lon="3.68795">
        <ele>138.57</ele>
        <time>2020-06-21T08:42:23Z</time>
      </trkpt>
      <trkpt lat="50.12675" lon="3.68789">
        <ele>138.57</ele>
        <time>2020-06-21T08:42:24Z</time>
      </trkpt>
      <trkpt lat="50.12711" lon="3.68745">
        <ele>137.13</ele>
        <time>2020-06-21T08:42:33Z</time>
      </trkpt>
      <trkpt lat="50.12763" lon="3.68673">
        <ele>136.16</ele>
        <time>2020-06-21T08:42:48Z</time>
      </trkpt>
      <trkpt lat="50.12805" lon="3.68612">
        <ele>137.13</ele>
        <time>2020-06-21T08:43:02Z</time>
      </trkpt>
      <trkpt lat="50.12832" lon="3.68531">
        <ele>138.09</ele>
        <time>2020-06-21T08:43:17Z</time>
      </trkpt>
      <trkpt lat="50.12836" lon="3.68514">
        <ele>138.57</ele>
        <time>2020-06-21T08:43:20Z</time>
      </trkpt>
      <trkpt lat="50.12846" lon="3.68472">
        <ele>139.05</ele>
        <time>2020-06-21T08:43:26Z</time>
      </trkpt>
      <trkpt lat="50.12848" lon="3.68465">
        <ele>139.53</ele>
        <time>2020-06-21T08:43:27Z</time>
      </trkpt>
      <trkpt lat="50.1285" lon="3.68459">
        <ele>139.53</ele>
        <time>2020-06-21T08:43:28Z</time>
      </trkpt>
      <trkpt lat="50.12861" lon="3.6839">
        <ele>140.01</ele>
        <time>2020-06-21T08:43:41Z</time>
      </trkpt>
      <trkpt lat="50.12858" lon="3.68388">
        <ele>140.01</ele>
        <time>2020-06-21T08:43:42Z</time>
      </trkpt>
      <trkpt lat="50.12854" lon="3.68388">
        <ele>140.01</ele>
        <time>2020-06-21T08:43:43Z</time>
      </trkpt>
      <trkpt lat="50.1285" lon="3.68391">
        <ele>140.01</ele>
        <time>2020-06-21T08:43:44Z</time>
      </trkpt>
      <trkpt lat="50.12848" lon="3.68394">
        <ele>140.01</ele>
        <time>2020-06-21T08:43:45Z</time>
      </trkpt>
      <trkpt lat="50.12845" lon="3.68398">
        <ele>140.01</ele>
        <time>2020-06-21T08:43:46Z</time>
      </trkpt>
      <trkpt lat="50.12837" lon="3.68413">
        <ele>140.01</ele>
        <time>2020-06-21T08:43:49Z</time>
      </trkpt>
      <trkpt lat="50.12834" lon="3.68417">
        <ele>140.01</ele>
        <time>2020-06-21T08:43:50Z</time>
      </trkpt>
      <trkpt lat="50.1283" lon="3.68421">
        <ele>138.57</ele>
        <time>2020-06-21T08:43:51Z</time>
      </trkpt>
      <trkpt lat="50.12827" lon="3.68423">
        <ele>138.57</ele>
        <time>2020-06-21T08:43:52Z</time>
      </trkpt>
      <trkpt lat="50.12823" lon="3.68427">
        <ele>138.57</ele>
        <time>2020-06-21T08:43:53Z</time>
      </trkpt>
      <trkpt lat="50.12808" lon="3.68437">
        <ele>138.09</ele>
        <time>2020-06-21T08:43:57Z</time>
      </trkpt>
      <trkpt lat="50.12804" lon="3.68435">
        <ele>138.09</ele>
        <time>2020-06-21T08:43:58Z</time>
      </trkpt>
      <trkpt lat="50.128" lon="3.68432">
        <ele>138.09</ele>
        <time>2020-06-21T08:43:59Z</time>
      </trkpt>
      <trkpt lat="50.12798" lon="3.68427">
        <ele>138.09</ele>
        <time>2020-06-21T08:44:00Z</time>
      </trkpt>
      <trkpt lat="50.12795" lon="3.68422">
        <ele>138.09</ele>
        <time>2020-06-21T08:44:01Z</time>
      </trkpt>
      <trkpt lat="50.12774" lon="3.68354">
        <ele>137.61</ele>
        <time>2020-06-21T08:44:09Z</time>
      </trkpt>
      <trkpt lat="50.12772" lon="3.68345">
        <ele>137.61</ele>
        <time>2020-06-21T08:44:10Z</time>
      </trkpt>
      <trkpt lat="50.12769" lon="3.68336">
        <ele>137.13</ele>
        <time>2020-06-21T08:44:11Z</time>
      </trkpt>
      <trkpt lat="50.1273" lon="3.68223">
        <ele>136.64</ele>
        <time>2020-06-21T08:44:24Z</time>
      </trkpt>
      <trkpt lat="50.12712" lon="3.6818">
        <ele>136.16</ele>
        <time>2020-06-21T08:44:30Z</time>
      </trkpt>
      <trkpt lat="50.12709" lon="3.68174">
        <ele>136.16</ele>
        <time>2020-06-21T08:44:31Z</time>
      </trkpt>
      <trkpt lat="50.12675" lon="3.68107">
        <ele>136.16</ele>
        <time>2020-06-21T08:44:42Z</time>
      </trkpt>
      <trkpt lat="50.12673" lon="3.68101">
        <ele>136.16</ele>
        <time>2020-06-21T08:44:43Z</time>
      </trkpt>
      <trkpt lat="50.12649" lon="3.68046">
        <ele>136.16</ele>
        <time>2020-06-21T08:44:52Z</time>
      </trkpt>
      <trkpt lat="50.12642" lon="3.68028">
        <ele>136.16</ele>
        <time>2020-06-21T08:44:55Z</time>
      </trkpt>
      <trkpt lat="50.12639" lon="3.68022">
        <ele>136.16</ele>
        <time>2020-06-21T08:44:56Z</time>
      </trkpt>
      <trkpt lat="50.12635" lon="3.68016">
        <ele>136.16</ele>
        <time>2020-06-21T08:44:57Z</time>
      </trkpt>
      <trkpt lat="50.12633" lon="3.68011">
        <ele>136.16</ele>
        <time>2020-06-21T08:44:58Z</time>
      </trkpt>
      <trkpt lat="50.1263" lon="3.68005">
        <ele>136.16</ele>
        <time>2020-06-21T08:44:59Z</time>
      </trkpt>
      <trkpt lat="50.12627" lon="3.68">
        <ele>136.16</ele>
        <time>2020-06-21T08:45:00Z</time>
      </trkpt>
      <trkpt lat="50.12624" lon="3.67995">
        <ele>136.16</ele>
        <time>2020-06-21T08:45:01Z</time>
      </trkpt>
      <trkpt lat="50.12597" lon="3.67941">
        <ele>136.16</ele>
        <time>2020-06-21T08:45:10Z</time>
      </trkpt>
      <trkpt lat="50.12594" lon="3.67936">
        <ele>136.16</ele>
        <time>2020-06-21T08:45:11Z</time>
      </trkpt>
      <trkpt lat="50.12592" lon="3.67931">
        <ele>136.16</ele>
        <time>2020-06-21T08:45:12Z</time>
      </trkpt>
      <trkpt lat="50.12589" lon="3.67925">
        <ele>136.16</ele>
        <time>2020-06-21T08:45:13Z</time>
      </trkpt>
      <trkpt lat="50.12586" lon="3.6792">
        <ele>136.16</ele>
        <time>2020-06-21T08:45:14Z</time>
      </trkpt>
      <trkpt lat="50.12583" lon="3.67915">
        <ele>136.16</ele>
        <time>2020-06-21T08:45:15Z</time>
      </trkpt>
      <trkpt lat="50.12567" lon="3.67897">
        <ele>136.16</ele>
        <time>2020-06-21T08:45:19Z</time>
      </trkpt>
      <trkpt lat="50.12533" lon="3.67874">
        <ele>135.68</ele>
        <time>2020-06-21T08:45:27Z</time>
      </trkpt>
      <trkpt lat="50.12529" lon="3.6787">
        <ele>135.68</ele>
        <time>2020-06-21T08:45:28Z</time>
      </trkpt>
      <trkpt lat="50.12525" lon="3.67865">
        <ele>135.68</ele>
        <time>2020-06-21T08:45:29Z</time>
      </trkpt>
      <trkpt lat="50.12485" lon="3.6782">
        <ele>135.68</ele>
        <time>2020-06-21T08:45:42Z</time>
      </trkpt>
      <trkpt lat="50.12479" lon="3.67813">
        <ele>135.68</ele>
        <time>2020-06-21T08:45:45Z</time>
      </trkpt>
      <trkpt lat="50.12478" lon="3.67812">
        <ele>135.68</ele>
        <time>2020-06-21T08:45:46Z</time>
      </trkpt>
      <trkpt lat="50.12476" lon="3.67812">
        <ele>135.68</ele>
        <time>2020-06-21T08:45:47Z</time>
      </trkpt>
      <trkpt lat="50.12474" lon="3.67813">
        <ele>135.68</ele>
        <time>2020-06-21T08:45:48Z</time>
      </trkpt>
      <trkpt lat="50.12472" lon="3.67814">
        <ele>135.68</ele>
        <time>2020-06-21T08:45:49Z</time>
      </trkpt>
      <trkpt lat="50.1247" lon="3.67814">
        <ele>135.2</ele>
        <time>2020-06-21T08:45:50Z</time>
      </trkpt>
      <trkpt lat="50.12468" lon="3.67815">
        <ele>135.2</ele>
        <time>2020-06-21T08:45:51Z</time>
      </trkpt>
      <trkpt lat="50.12466" lon="3.67815">
        <ele>135.2</ele>
        <time>2020-06-21T08:45:52Z</time>
      </trkpt>
      <trkpt lat="50.12463" lon="3.67816">
        <ele>135.2</ele>
        <time>2020-06-21T08:45:53Z</time>
      </trkpt>
      <trkpt lat="50.12462" lon="3.67817">
        <ele>135.2</ele>
        <time>2020-06-21T08:45:54Z</time>
      </trkpt>
      <trkpt lat="50.1246" lon="3.67817">
        <ele>135.2</ele>
        <time>2020-06-21T08:45:55Z</time>
      </trkpt>
      <trkpt lat="50.12458" lon="3.67817">
        <ele>135.2</ele>
        <time>2020-06-21T08:45:56Z</time>
      </trkpt>
      <trkpt lat="50.12458" lon="3.67819">
        <ele>134.24</ele>
        <time>2020-06-21T08:46:07Z</time>
      </trkpt>
      <trkpt lat="50.12458" lon="3.6782">
        <ele>134.24</ele>
        <time>2020-06-21T08:46:36Z</time>
      </trkpt>
    </trkseg>
  </trk>
</gpx>